This is the latest recevied weather packets stored in our database for station/object ZL1KPB-13. If no packets are shown the sender has not sent any weather packets the latest 10 day(s).
| Time | Temp. | Humidity | Pressure | Rain* | Wind** | Luminosity | Snow |
|---|---|---|---|---|---|---|---|
| 1777902691 | 8.33° C | 93% | 1037.2 hPa | 0 mm | - | - | - |
| 1777896635 | 8.89° C | 89% | 1037.6 hPa | 0 mm | - | - | - |
| 1777890660 | 11.67° C | 80% | 1037.8 hPa | 0 mm | - | - | - |
| 1777888850 | 11.11° C | 81% | 1037.8 hPa | 0 mm | - | - | - |
| 1777882875 | 11.11° C | 85% | 1037.6 hPa | 0 mm | - | - | - |
| 1777877443 | 11.11° C | 86% | 1036.8 hPa | 0 mm | - | - | - |
| 1777876840 | 10.56° C | 86% | 1036.8 hPa | 0 mm | - | - | - |
| 1777875634 | 11.11° C | 87% | 1036.5 hPa | 0 mm | - | - | - |
| 1777873240 | 11.11° C | 84% | 1036.1 hPa | 0 mm | - | - | - |
| 1777869054 | 15° C | 71% | 1036.2 hPa | 0 mm | - | - | - |
| 1777867848 | 15° C | 69% | 1036.1 hPa | 0 mm | - | - | - |
| 1777867244 | 15° C | 68% | 1036.1 hPa | 0 mm | - | - | - |
| 1777866640 | 15.56° C | 67% | 1036.1 hPa | 0 mm | - | - | - |
| 1777866037 | 16.11° C | 63% | 1036.1 hPa | 0 mm | - | - | - |
| 1777862416 | 18.33° C | 61% | 1035.9 hPa | 0 mm | - | - | - |
| 1777858252 | 17.22° C | 63% | 1036.2 hPa | 0 mm | - | - | - |
| 1777853424 | 15.56° C | 67% | 1037.1 hPa | 0 mm | - | - | - |
| 1777852820 | 15.56° C | 70% | 1037.1 hPa | 0 mm | - | - | - |
| 1777852216 | 15° C | 71% | 1037.1 hPa | 0 mm | - | - | - |
| 1777851674 | 15° C | 68% | 1037.2 hPa | 0 mm | - | - | - |
| 1777840871 | 11.67° C | 92% | 1037.4 hPa | 0 mm | - | - | - |
| 1777840269 | 11.67° C | 95% | 1037.4 hPa | 0 mm | - | - | - |
| 1777838457 | 11.11° C | 98% | 1036.9 hPa | 0 mm | - | - | - |
| 1777832466 | 9.44° C | 99% | 1036 hPa | 0 mm | - | - | - |
| 1777831275 | 8.89° C | 99% | 1035.9 hPa | 0 mm | - | - | - |
* Rain latest hour (hover to see other rain measurements)
** Current wind speed in m/s (hover to see current wind gust speed)